Time;durP1;ratioP1;P1;durP2;ratioP2;P2;SDS_P1;SDS_P2;PMS_P1;PMS_P2;Temp;Humidity;BMP_temperature;BMP_pressure;BME280_temperature;BME280_humidity;BME280_pressure;Samples;Min_cycle;Max_cycle;Signal;HPM_P1;HPM_P2
2022/07/07 00:02:27;;;;;;;1.70;1.20;;;15.00;92.10;;;;;;5022050;28;20467;-52
2022/07/07 00:04:54;;;;;;;1.93;1.30;;;15.00;94.80;;;;;;5024978;28;20532;-52
2022/07/07 00:07:20;;;;;;;1.67;1.50;;;15.10;95.30;;;;;;5026838;28;20521;-52
2022/07/07 00:09:47;;;;;;;2.70;2.00;;;15.10;96.90;;;;;;5025609;28;20479;-51
2022/07/07 00:12:14;;;;;;;9.53;2.30;;;15.10;98.00;;;;;;5032953;28;20482;-53
2022/07/07 00:14:40;;;;;;;2.47;1.60;;;15.20;99.90;;;;;;5029811;28;20467;-52
2022/07/07 00:17:07;;;;;;;3.40;1.70;;;15.20;99.90;;;;;;5033568;28;20513;-52
2022/07/07 00:19:35;;;;;;;2.77;1.50;;;15.20;99.90;;;;;;5032443;28;20525;-52
2022/07/07 00:22:02;;;;;;;7.53;1.70;;;15.20;99.90;;;;;;5020527;28;20661;-54
2022/07/07 00:24:29;;;;;;;7.30;2.17;;;15.30;99.90;;;;;;5031459;28;20470;-53
2022/07/07 00:26:56;;;;;;;3.60;1.77;;;15.30;99.90;;;;;;5031735;28;20458;-52
2022/07/07 00:29:23;;;;;;;2.20;1.50;;;15.30;99.90;;;;;;5032644;28;20483;-53
2022/07/07 00:31:49;;;;;;;3.47;1.57;;;15.30;99.90;;;;;;5030856;28;20482;-52
2022/07/07 00:34:16;;;;;;;2.10;1.50;;;15.30;99.90;;;;;;5030698;28;20779;-53
2022/07/07 00:36:44;;;;;;;1.77;1.33;;;15.40;99.90;;;;;;5032165;28;20467;-52
2022/07/07 00:39:12;;;;;;;2.37;1.47;;;15.40;99.90;;;;;;5031060;28;20486;-51
2022/07/07 00:41:39;;;;;;;4.83;1.00;;;15.40;99.90;;;;;;5031632;28;20456;-52
2022/07/07 00:44:06;;;;;;;2.93;0.80;;;15.40;99.90;;;;;;5039526;28;20523;-52
2022/07/07 00:46:42;;;;;;;3.17;0.90;;;15.40;99.90;;;;;;5024061;28;20459;-52
2022/07/07 00:49:10;;;;;;;3.17;1.20;;;15.40;99.90;;;;;;5029539;28;20480;-52
2022/07/07 00:51:37;;;;;;;2.03;0.90;;;15.40;99.90;;;;;;5027212;28;20473;-52
2022/07/07 00:54:05;;;;;;;1.70;1.30;;;15.40;99.90;;;;;;5033006;28;20463;-53
2022/07/07 00:56:32;;;;;;;1.00;0.80;;;15.40;99.90;;;;;;5031155;28;20956;-52
2022/07/07 00:59:02;;;;;;;1.00;1.00;;;15.40;99.90;;;;;;5032217;28;20483;-52
2022/07/07 01:01:29;;;;;;;9.27;1.07;;;15.40;95.30;;;;;;5027447;28;20817;-52
2022/07/07 01:03:56;;;;;;;2.60;1.23;;;15.30;86.30;;;;;;5034683;28;20471;-53
2022/07/07 01:06:23;;;;;;;34.87;2.57;;;15.20;72.60;;;;;;5018715;28;20470;-52
2022/07/07 01:08:54;;;;;;;3.83;0.93;;;15.10;61.80;;;;;;5031451;28;20697;-52
2022/07/07 01:11:22;;;;;;;3.23;1.17;;;15.00;44.80;;;;;;5026566;28;20482;-55
2022/07/07 01:13:48;;;;;;;2.73;1.10;;;14.90;40.90;;;;;;5026392;28;20462;-53
2022/07/07 01:16:15;;;;;;;1.87;0.93;;;14.80;78.20;;;;;;5034616;28;20872;-53
2022/07/07 01:18:42;;;;;;;3.47;0.90;;;14.70;99.90;;;;;;5033022;28;20498;-54
2022/07/07 01:21:12;;;;;;;0.87;0.87;;;14.60;99.90;;;;;;5039083;28;20469;-52
2022/07/07 01:23:40;;;;;;;3.57;1.63;;;14.60;99.90;;;;;;5030104;28;20459;-53
2022/07/07 01:26:07;;;;;;;5.90;1.00;;;14.50;99.90;;;;;;5031311;28;20450;-53
2022/07/07 01:28:34;;;;;;;5.23;0.90;;;14.40;99.90;;;;;;5035075;28;20482;-53
2022/07/07 01:31:00;;;;;;;1.17;0.90;;;14.30;99.90;;;;;;5032180;28;20489;-53
2022/07/07 01:33:27;;;;;;;2.20;1.00;;;14.30;99.90;;;;;;5029856;28;20457;-53
2022/07/07 01:35:53;;;;;;;3.43;0.93;;;14.20;99.90;;;;;;5033970;28;20959;-54
2022/07/07 01:38:20;;;;;;;4.63;1.03;;;14.20;99.90;;;;;;5033020;28;20486;-53
2022/07/07 01:40:48;;;;;;;1.73;1.13;;;14.10;99.90;;;;;;5028260;28;20495;-54
2022/07/07 01:43:15;;;;;;;2.23;0.87;;;14.10;99.90;;;;;;5039959;28;20997;-53
2022/07/07 01:45:41;;;;;;;4.27;1.47;;;14.00;99.90;;;;;;5027192;28;20461;-53
2022/07/07 01:48:08;;;;;;;1.57;0.90;;;13.90;95.40;;;;;;5034613;28;20490;-53
2022/07/07 01:50:35;;;;;;;3.43;1.10;;;13.90;89.10;;;;;;5030764;28;20530;-53
2022/07/07 01:53:01;;;;;;;3.43;0.90;;;13.80;91.70;;;;;;5033848;28;20486;-53
2022/07/07 01:55:28;;;;;;;1.07;0.97;;;13.80;76.80;;;;;;5031253;28;20443;-53
2022/07/07 01:57:56;;;;;;;2.40;1.20;;;13.70;70.80;;;;;;5027164;28;20459;-54
2022/07/07 02:00:22;;;;;;;2.40;1.10;;;13.60;51.70;;;;;;5033622;28;20466;-54
2022/07/07 02:02:49;;;;;;;3.80;2.10;;;13.60;51.80;;;;;;5025091;28;20504;-52
2022/07/07 02:05:16;;;;;;;1.00;0.80;;;13.50;33.80;;;;;;5035146;28;20512;-53
2022/07/07 02:07:45;;;;;;;11.43;1.00;;;13.50;25.20;;;;;;5031697;28;20463;-54
2022/07/07 02:10:12;;;;;;;2.40;1.20;;;13.50;95.70;;;;;;5031673;28;20506;-52
2022/07/07 02:12:38;;;;;;;3.90;1.23;;;13.40;99.90;;;;;;5029887;28;20572;-53
2022/07/07 02:15:08;;;;;;;1.63;1.10;;;13.40;99.90;;;;;;5039188;28;20463;-53
2022/07/07 02:17:34;;;;;;;6.17;1.07;;;13.30;99.90;;;;;;5038317;28;20520;-54
2022/07/07 02:20:01;;;;;;;3.27;1.53;;;13.30;99.90;;;;;;5038361;28;20890;-54
2022/07/07 02:22:27;;;;;;;9.70;1.43;;;13.30;99.90;;;;;;5039503;28;20524;-54
2022/07/07 02:24:54;;;;;;;1.40;1.23;;;13.30;99.90;;;;;;5043826;28;20454;-52
2022/07/07 02:27:20;;;;;;;15.67;1.37;;;13.30;99.90;;;;;;5047180;28;20466;-53
2022/07/07 02:29:47;;;;;;;8.67;2.60;;;13.20;99.90;;;;;;5045809;28;20875;-54
2022/07/07 02:32:15;;;;;;;3.53;2.33;;;13.20;99.90;;;;;;5049761;28;21033;-52
2022/07/07 02:34:42;;;;;;;2.80;2.50;;;13.10;99.90;;;;;;5034839;28;20493;-55
2022/07/07 02:37:08;;;;;;;3.73;2.17;;;13.10;99.90;;;;;;5051463;28;20447;-53
2022/07/07 02:39:35;;;;;;;4.77;2.23;;;13.10;99.90;;;;;;5057951;28;20637;-54
2022/07/07 02:42:01;;;;;;;6.13;2.37;;;13.00;99.90;;;;;;5059175;28;20449;-53
2022/07/07 02:44:28;;;;;;;5.40;1.80;;;13.00;99.90;;;;;;5035790;28;20979;-54
2022/07/07 02:46:55;;;;;;;1.90;1.60;;;13.00;99.90;;;;;;5034103;28;20888;-53
2022/07/07 02:49:23;;;;;;;1.70;1.60;;;13.00;99.90;;;;;;5026143;28;20549;-53
2022/07/07 02:51:50;;;;;;;4.53;1.63;;;12.90;99.90;;;;;;5040749;28;20565;-53
2022/07/07 02:54:17;;;;;;;1.93;1.03;;;12.90;99.90;;;;;;5028210;28;20874;-54
2022/07/07 02:56:43;;;;;;;2.60;1.50;;;12.90;99.90;;;;;;5026119;28;20542;-52
2022/07/07 02:59:10;;;;;;;3.87;0.97;;;12.90;99.90;;;;;;5027080;28;20491;-54
2022/07/07 03:01:36;;;;;;;3.67;1.10;;;12.90;99.90;;;;;;5016307;28;20512;-52
2022/07/07 03:04:03;;;;;;;3.43;0.93;;;12.90;97.60;;;;;;5034034;28;20520;-53
2022/07/07 03:06:31;;;;;;;2.17;1.23;;;12.90;91.50;;;;;;5028894;28;20953;-54
2022/07/07 03:08:58;;;;;;;2.30;1.10;;;13.00;82.30;;;;;;5037999;28;20466;-53
2022/07/07 03:11:24;;;;;;;1.57;0.90;;;12.90;81.70;;;;;;5032328;28;20530;-54
2022/07/07 03:13:51;;;;;;;1.23;0.90;;;13.00;78.60;;;;;;5035492;28;20520;-54
2022/07/07 03:16:18;;;;;;;2.93;1.20;;;13.00;76.40;;;;;;5032875;28;20823;-53
2022/07/07 03:18:44;;;;;;;0.80;0.67;;;13.00;74.50;;;;;;5034934;28;20536;-53
2022/07/07 03:21:11;;;;;;;2.00;1.17;;;13.10;73.10;;;;;;5027023;28;20882;-53
2022/07/07 03:23:39;;;;;;;4.30;1.50;;;13.00;70.10;;;;;;5032474;28;20455;-52
2022/07/07 03:26:05;;;;;;;4.90;1.50;;;13.10;68.70;;;;;;5032294;28;20494;-54
2022/07/07 03:28:33;;;;;;;3.13;1.20;;;13.10;68.60;;;;;;5036095;28;20594;-54
2022/07/07 03:30:59;;;;;;;5.10;1.40;;;13.00;67.80;;;;;;5037332;28;20462;-54
2022/07/07 03:33:26;;;;;;;3.83;1.40;;;13.10;66.20;;;;;;5025757;28;20480;-54
2022/07/07 03:35:52;;;;;;;3.53;1.67;;;13.10;62.80;;;;;;5024280;28;20505;-53
2022/07/07 03:38:19;;;;;;;4.00;1.20;;;13.10;58.50;;;;;;5030017;28;20483;-53
2022/07/07 03:40:47;;;;;;;4.23;1.50;;;13.10;59.10;;;;;;5031970;28;20463;-53
2022/07/07 03:43:14;;;;;;;4.10;1.50;;;13.10;58.30;;;;;;5029601;28;20458;-54
2022/07/07 03:45:40;;;;;;;1.33;1.17;;;13.10;57.50;;;;;;5032582;28;20512;-54
2022/07/07 03:48:08;;;;;;;3.53;1.27;;;13.10;57.60;;;;;;5038627;28;20494;-54
2022/07/07 03:50:34;;;;;;;4.50;1.60;;;13.10;57.50;;;;;;5029105;28;20463;-54
2022/07/07 03:53:01;;;;;;;2.53;1.67;;;13.10;55.20;;;;;;5032011;28;20565;-53
2022/07/07 03:55:28;;;;;;;5.07;1.67;;;13.10;55.20;;;;;;5031431;28;20466;-54
2022/07/07 03:57:56;;;;;;;1.80;1.20;;;13.10;54.70;;;;;;5027802;28;20466;-54
2022/07/07 04:00:23;;;;;;;3.03;1.63;;;13.10;51.40;;;;;;5035247;28;20467;-54
2022/07/07 04:02:49;;;;;;;3.03;1.40;;;13.10;45.60;;;;;;5030955;28;20505;-54
2022/07/07 04:05:16;;;;;;;4.70;1.50;;;13.10;48.20;;;;;;5030741;28;20458;-53
2022/07/07 04:07:45;;;;;;;2.17;1.30;;;13.10;43.10;;;;;;5034199;28;20498;-54
2022/07/07 04:10:11;;;;;;;2.30;1.13;;;13.10;38.80;;;;;;5030168;28;20490;-53
2022/07/07 04:12:38;;;;;;;2.00;1.40;;;13.10;31.00;;;;;;5025548;28;20548;-54
2022/07/07 04:15:07;;;;;;;3.70;1.87;;;13.10;27.80;;;;;;5040381;28;20458;-55
2022/07/07 04:17:33;;;;;;;2.63;1.83;;;13.10;25.10;;;;;;5024469;28;20471;-55
2022/07/07 04:20:01;;;;;;;2.10;1.40;;;13.10;21.70;;;;;;5034498;28;20999;-53
2022/07/07 04:22:27;;;;;;;2.50;1.37;;;13.10;86.30;;;;;;5032462;28;20554;-53
2022/07/07 04:24:54;;;;;;;2.77;1.90;;;13.10;94.80;;;;;;5030081;28;20549;-53
2022/07/07 04:27:21;;;;;;;1.50;1.40;;;13.10;99.90;;;;;;5032071;28;20953;-53
2022/07/07 04:29:48;;;;;;;2.80;1.70;;;13.10;99.90;;;;;;5035085;28;20535;-52
2022/07/07 04:32:16;;;;;;;2.60;2.00;;;13.10;99.90;;;;;;5035141;28;20491;-53
2022/07/07 04:34:42;;;;;;;8.13;1.70;;;13.10;99.90;;;;;;5025341;28;20463;-53
2022/07/07 04:37:09;;;;;;;3.53;1.80;;;13.10;99.90;;;;;;5030587;28;20520;-53
2022/07/07 04:39:36;;;;;;;2.60;1.77;;;13.10;99.90;;;;;;5034472;28;20533;-53
2022/07/07 04:42:02;;;;;;;3.43;1.90;;;13.20;99.90;;;;;;5029778;28;20957;-53
2022/07/07 04:44:29;;;;;;;3.00;1.60;;;13.20;99.90;;;;;;5031824;28;20450;-52
2022/07/07 04:46:55;;;;;;;2.90;1.60;;;13.20;99.90;;;;;;5028648;28;20467;-53
2022/07/07 04:49:23;;;;;;;2.20;2.00;;;13.20;99.90;;;;;;5030865;28;21039;-52
2022/07/07 04:51:50;;;;;;;1.70;1.60;;;13.20;99.90;;;;;;5042108;28;20461;-52
2022/07/07 04:54:17;;;;;;;5.57;2.00;;;13.20;99.90;;;;;;5031120;28;20463;-53
2022/07/07 04:56:44;;;;;;;1.70;1.60;;;13.20;99.90;;;;;;5034455;28;20517;-53
2022/07/07 04:59:10;;;;;;;3.57;1.80;;;13.20;99.90;;;;;;5027850;28;20552;-51
2022/07/07 05:01:37;;;;;;;3.03;1.90;;;13.20;99.90;;;;;;5038283;28;20450;-54
2022/07/07 05:04:03;;;;;;;3.70;1.90;;;13.20;99.90;;;;;;5036429;28;20454;-52
2022/07/07 05:06:31;;;;;;;2.37;1.60;;;13.10;99.90;;;;;;5033475;28;20948;-52
2022/07/07 05:08:58;;;;;;;1.80;1.43;;;13.20;99.90;;;;;;5031361;28;20503;-51
2022/07/07 05:11:25;;;;;;;2.50;2.30;;;13.20;99.90;;;;;;5026874;28;20486;-53
2022/07/07 05:13:51;;;;;;;2.07;1.57;;;13.20;99.90;;;;;;5029040;28;20483;-52
2022/07/07 05:16:18;;;;;;;2.50;1.50;;;13.20;99.90;;;;;;5027373;28;20458;-52
2022/07/07 05:18:44;;;;;;;1.80;1.70;;;13.20;99.90;;;;;;5031018;28;20488;-54
2022/07/07 05:21:11;;;;;;;2.13;1.80;;;13.20;99.90;;;;;;5027186;28;20523;-52
2022/07/07 05:23:39;;;;;;;9.90;2.20;;;13.20;99.90;;;;;;5030807;28;20454;-52
2022/07/07 05:26:06;;;;;;;1.70;1.60;;;13.20;99.90;;;;;;5023060;28;20474;-53
2022/07/07 05:28:33;;;;;;;1.70;1.60;;;13.20;99.90;;;;;;5026467;28;20477;-51
2022/07/07 05:30:59;;;;;;;1.80;1.50;;;13.20;99.90;;;;;;5034236;28;20533;-52
2022/07/07 05:33:26;;;;;;;2.63;1.83;;;13.20;99.90;;;;;;5027228;28;20986;-52
2022/07/07 05:35:53;;;;;;;2.07;1.90;;;13.20;99.90;;;;;;5023352;28;20466;-52
2022/07/07 05:38:19;;;;;;;1.47;1.43;;;13.20;99.90;;;;;;5028783;28;20478;-52
2022/07/07 05:40:47;;;;;;;1.60;1.37;;;13.20;99.90;;;;;;5032273;28;20592;-52
2022/07/07 05:43:14;;;;;;;1.60;1.50;;;13.20;99.90;;;;;;5027783;28;20463;-52
2022/07/07 05:45:40;;;;;;;2.13;1.73;;;13.20;99.90;;;;;;5032114;28;20513;-53
2022/07/07 05:48:07;;;;;;;1.67;1.50;;;13.20;99.90;;;;;;5023786;28;20482;-52
2022/07/07 05:50:34;;;;;;;1.50;1.40;;;13.20;99.90;;;;;;5029625;28;20462;-52
2022/07/07 05:53:00;;;;;;;1.60;1.50;;;13.20;99.90;;;;;;5019168;28;20568;-53
2022/07/07 05:55:27;;;;;;;1.80;1.70;;;13.30;99.90;;;;;;5040542;28;20463;-54
2022/07/07 05:57:55;;;;;;;1.37;1.30;;;13.20;99.90;;;;;;5029093;28;20524;-54
2022/07/07 06:00:23;;;;;;;3.33;1.60;;;13.30;99.90;;;;;;5022322;28;20467;-54
2022/07/07 06:02:50;;;;;;;2.03;1.83;;;13.30;99.90;;;;;;5031060;28;20462;-53
2022/07/07 06:05:16;;;;;;;2.17;1.97;;;13.30;99.90;;;;;;5022034;28;20467;-54
2022/07/07 06:07:43;;;;;;;2.30;1.60;;;13.30;99.90;;;;;;5023022;28;20455;-54
2022/07/07 06:10:11;;;;;;;1.77;1.67;;;13.30;99.90;;;;;;5029378;28;20846;-55
2022/07/07 06:12:37;;;;;;;6.47;1.57;;;13.30;99.90;;;;;;5024942;28;20482;-54
2022/07/07 06:15:06;;;;;;;2.37;1.77;;;13.30;99.90;;;;;;5027249;28;20469;-54
2022/07/07 06:17:33;;;;;;;1.77;1.67;;;13.30;99.90;;;;;;5025887;28;20454;-54
2022/07/07 06:20:00;;;;;;;1.60;1.50;;;13.30;99.90;;;;;;5029698;28;20487;-55
2022/07/07 06:22:26;;;;;;;2.17;1.97;;;13.30;99.90;;;;;;5019309;28;20459;-54
2022/07/07 06:24:53;;;;;;;2.10;2.00;;;13.30;99.90;;;;;;5021256;28;20974;-53
2022/07/07 06:27:20;;;;;;;1.70;1.70;;;13.40;99.90;;;;;;5023295;28;20467;-54
2022/07/07 06:29:46;;;;;;;1.60;1.50;;;13.40;99.90;;;;;;5022103;28;20510;-53
2022/07/07 06:32:15;;;;;;;1.70;1.60;;;13.40;99.90;;;;;;5024050;28;20478;-54
2022/07/07 06:34:42;;;;;;;1.80;1.70;;;13.40;99.90;;;;;;5024982;28;20892;-54
2022/07/07 06:37:08;;;;;;;1.77;1.40;;;13.40;99.90;;;;;;5034258;28;20458;-54
2022/07/07 06:39:35;;;;;;;1.13;1.13;;;13.40;99.90;;;;;;5030108;28;20482;-52
2022/07/07 06:42:02;;;;;;;1.63;1.53;;;13.40;99.90;;;;;;5039815;28;20458;-52
2022/07/07 06:44:30;;;;;;;3.27;1.70;;;13.40;99.90;;;;;;5035259;28;20948;-53
2022/07/07 06:46:57;;;;;;;1.53;1.43;;;13.50;99.90;;;;;;5032083;28;20541;-53
2022/07/07 06:49:25;;;;;;;1.80;1.70;;;13.50;99.90;;;;;;5038011;28;21060;-54
2022/07/07 06:51:52;;;;;;;1.77;1.67;;;13.50;99.90;;;;;;5026240;28;20466;-53
2022/07/07 06:54:19;;;;;;;2.57;1.60;;;13.50;99.90;;;;;;5025234;28;20494;-53
2022/07/07 06:56:45;;;;;;;2.30;2.00;;;13.50;99.90;;;;;;5027375;28;20459;-53
2022/07/07 06:59:12;;;;;;;1.83;1.73;;;13.60;99.90;;;;;;5020595;28;20482;-53
2022/07/07 07:01:38;;;;;;;3.90;3.70;;;13.60;99.90;;;;;;5023935;28;20459;-54
2022/07/07 07:04:07;;;;;;;2.87;2.33;;;13.60;99.90;;;;;;5030168;28;20458;-53
2022/07/07 07:06:35;;;;;;;2.17;2.03;;;13.60;99.90;;;;;;5023594;28;20474;-53
2022/07/07 07:09:01;;;;;;;2.27;2.07;;;13.60;99.90;;;;;;5023777;28;20510;-52
2022/07/07 07:11:28;;;;;;;1.90;1.80;;;13.60;99.90;;;;;;5031938;28;20463;-53
2022/07/07 07:13:56;;;;;;;1.97;1.87;;;13.60;99.90;;;;;;5023371;28;20492;-54
2022/07/07 07:16:24;;;;;;;1.90;1.63;;;13.60;99.90;;;;;;5034918;28;20466;-53
2022/07/07 07:18:51;;;;;;;1.90;1.80;;;13.60;99.90;;;;;;5024512;28;20563;-54
2022/07/07 07:21:17;;;;;;;2.13;1.60;;;13.60;99.90;;;;;;5026061;28;20463;-53
2022/07/07 07:23:45;;;;;;;1.97;1.87;;;13.70;99.90;;;;;;5030497;28;20868;-53
2022/07/07 07:26:12;;;;;;;2.00;1.90;;;13.70;1.40;;;;;;5023844;28;20463;-53
2022/07/07 07:28:39;;;;;;;2.10;2.00;;;13.70;99.90;;;;;;5025933;28;20482;-53
2022/07/07 07:31:06;;;;;;;1.97;1.87;;;13.80;99.90;;;;;;5029151;28;20454;-54
2022/07/07 07:33:35;;;;;;;2.60;2.17;;;13.80;99.90;;;;;;5031584;28;20513;-52
2022/07/07 07:36:01;;;;;;;8.73;2.60;;;13.80;99.90;;;;;;5032726;28;20965;-53
2022/07/07 07:38:28;;;;;;;5.03;2.37;;;13.90;99.90;;;;;;5021557;28;20617;-52
2022/07/07 07:40:56;;;;;;;3.47;2.17;;;13.90;99.90;;;;;;5029576;28;20489;-52
2022/07/07 07:43:22;;;;;;;1.97;1.87;;;13.90;99.90;;;;;;5038989;28;20459;-53
2022/07/07 07:45:49;;;;;;;3.53;2.13;;;13.90;99.90;;;;;;5040685;28;20466;-53
2022/07/07 07:48:16;;;;;;;3.00;2.20;;;13.90;99.90;;;;;;5033879;28;20478;-52
2022/07/07 07:50:42;;;;;;;2.47;2.27;;;13.90;99.90;;;;;;5024174;28;21125;-53
2022/07/07 07:53:09;;;;;;;1.53;1.43;;;14.00;99.90;;;;;;5021185;28;20506;-53
2022/07/07 07:55:36;;;;;;;1.90;1.80;;;14.00;99.90;;;;;;5034737;28;20454;-52
2022/07/07 07:58:04;;;;;;;1.60;1.50;;;14.10;99.90;;;;;;5029465;28;20493;-54
2022/07/07 08:00:30;;;;;;;1.40;1.40;;;14.10;99.90;;;;;;5032671;28;20524;-53
2022/07/07 08:02:57;;;;;;;1.83;1.73;;;14.20;99.90;;;;;;5026691;28;20732;-52
2022/07/07 08:05:25;;;;;;;1.80;1.70;;;14.20;99.90;;;;;;5029248;28;20841;-52
2022/07/07 08:07:52;;;;;;;1.57;1.57;;;14.20;99.90;;;;;;5031389;28;20493;-53
2022/07/07 08:10:18;;;;;;;1.87;1.57;;;14.20;99.90;;;;;;5021732;28;20612;-53
2022/07/07 08:12:47;;;;;;;1.30;1.30;;;14.20;99.90;;;;;;5021389;28;20505;-53
2022/07/07 08:15:16;;;;;;;1.30;1.30;;;14.20;99.90;;;;;;5037771;28;20456;-52
2022/07/07 08:17:44;;;;;;;1.40;1.37;;;14.20;99.90;;;;;;5026148;28;20457;-53
2022/07/07 08:20:11;;;;;;;1.60;1.50;;;14.30;99.90;;;;;;5032250;28;20905;-52
2022/07/07 08:22:38;;;;;;;2.10;1.60;;;14.30;99.90;;;;;;5024134;28;20462;-52
2022/07/07 08:25:06;;;;;;;1.73;1.63;;;14.30;99.90;;;;;;5012071;28;20467;-52
2022/07/07 08:27:33;;;;;;;1.60;1.60;;;14.40;99.90;;;;;;5026926;28;20569;-53
2022/07/07 08:30:00;;;;;;;1.40;1.30;;;14.40;99.90;;;;;;5023614;28;20482;-52
2022/07/07 08:32:28;;;;;;;2.40;1.77;;;14.40;99.90;;;;;;5027694;28;20463;-53
2022/07/07 08:34:55;;;;;;;1.43;1.43;;;14.40;99.90;;;;;;5029127;28;20549;-52
2022/07/07 08:37:21;;;;;;;1.50;1.50;;;14.40;99.90;;;;;;5033718;28;20453;-52
2022/07/07 08:39:48;;;;;;;1.70;1.60;;;14.40;99.90;;;;;;5036655;28;20478;-53
2022/07/07 08:42:15;;;;;;;1.63;1.60;;;14.50;99.90;;;;;;5030298;28;20459;-52
2022/07/07 08:44:41;;;;;;;1.47;1.47;;;14.50;99.90;;;;;;5026145;28;20505;-52
2022/07/07 08:47:08;;;;;;;1.37;1.37;;;14.50;99.90;;;;;;5024079;28;20983;-52
2022/07/07 08:49:36;;;;;;;1.80;1.70;;;14.50;99.90;;;;;;5032572;28;20958;-52
2022/07/07 08:52:03;;;;;;;1.60;1.47;;;14.60;99.90;;;;;;5036214;28;20968;-52
2022/07/07 08:54:32;;;;;;;2.30;1.53;;;14.60;99.90;;;;;;5017989;28;20528;-53
2022/07/07 08:56:59;;;;;;;1.20;1.10;;;14.60;99.90;;;;;;5031193;28;20463;-53
2022/07/07 08:59:25;;;;;;;3.50;1.93;;;14.60;99.90;;;;;;5025484;28;20506;-52
2022/07/07 09:01:57;;;;;;;2.43;1.80;;;14.70;99.90;;;;;;5027171;28;20463;-52
2022/07/07 09:04:24;;;;;;;2.60;1.67;;;14.70;99.90;;;;;;5018315;28;21153;-53
2022/07/07 09:06:56;;;;;;;1.87;1.77;;;14.80;99.90;;;;;;5032717;28;20467;-53
2022/07/07 09:09:39;;;;;;;2.00;1.90;;;14.80;99.90;;;;;;5035259;28;20541;-53
2022/07/07 09:12:07;;;;;;;1.90;1.80;;;14.80;99.90;;;;;;5027068;28;20497;-53
2022/07/07 09:14:37;;;;;;;1.87;1.77;;;14.90;99.90;;;;;;5026008;28;20533;-52
2022/07/07 09:17:04;;;;;;;2.27;2.17;;;14.90;99.90;;;;;;5027060;28;20546;-53
2022/07/07 09:19:31;;;;;;;2.00;1.90;;;14.90;99.90;;;;;;5030464;28;20478;-52
2022/07/07 09:21:58;;;;;;;1.90;1.80;;;14.90;99.90;;;;;;5030602;28;20512;-53
2022/07/07 09:24:25;;;;;;;1.90;1.80;;;14.90;99.90;;;;;;5036108;28;20485;-53
2022/07/07 09:26:54;;;;;;;1.93;1.83;;;14.90;99.90;;;;;;5037032;28;20458;-52
2022/07/07 09:29:22;;;;;;;2.40;2.30;;;14.90;99.90;;;;;;5033049;28;20480;-53
2022/07/07 09:31:58;;;;;;;2.10;2.00;;;15.00;99.90;;;;;;5026192;28;20462;-53
2022/07/07 09:34:26;;;;;;;2.40;2.30;;;15.00;99.90;;;;;;5033703;28;20489;-53
2022/07/07 09:39:47;;;;;;;2.30;2.20;;;15.00;99.90;;;;;;5029058;28;20607;-53
2022/07/07 09:42:21;;;;;;;2.20;2.10;;;15.10;99.90;;;;;;5026554;28;20466;-53
2022/07/07 09:44:49;;;;;;;2.30;2.20;;;15.10;99.90;;;;;;5025203;28;20446;-53
2022/07/07 09:47:16;;;;;;;2.37;2.27;;;15.10;99.90;;;;;;5039435;28;20461;-53
2022/07/07 09:49:43;;;;;;;3.43;2.83;;;15.10;99.90;;;;;;5029115;28;20482;-53
2022/07/07 09:52:16;;;;;;;2.50;2.40;;;15.10;99.90;;;;;;5025057;28;20471;-54
2022/07/07 09:54:48;;;;;;;2.47;2.37;;;15.20;99.90;;;;;;5024327;28;20842;-53
2022/07/07 09:57:14;;;;;;;3.00;2.90;;;15.20;99.90;;;;;;5031117;28;20465;-53
2022/07/07 09:59:42;;;;;;;3.50;3.20;;;15.20;99.90;;;;;;5025768;28;20478;-53
2022/07/07 10:02:13;;;;;;;3.00;2.90;;;15.30;99.90;;;;;;5026515;28;20470;-53
2022/07/07 10:04:41;;;;;;;2.70;2.60;;;15.30;99.90;;;;;;5031066;28;20455;-53
2022/07/07 10:07:11;;;;;;;3.10;2.90;;;15.30;99.90;;;;;;5029451;28;20494;-53
2022/07/07 10:09:41;;;;;;;3.40;3.20;;;15.30;99.90;;;;;;5024787;28;20497;-52
2022/07/07 10:12:09;;;;;;;2.90;2.80;;;15.30;99.90;;;;;;5026121;28;20459;-54
2022/07/07 10:14:38;;;;;;;3.23;3.03;;;15.40;99.90;;;;;;5037314;28;20520;-53
2022/07/07 10:17:05;;;;;;;3.30;3.10;;;15.40;99.90;;;;;;5026235;28;20516;-53
2022/07/07 10:19:31;;;;;;;3.67;3.47;;;15.40;99.90;;;;;;5026569;28;20478;-53
2022/07/07 10:22:00;;;;;;;2.90;2.80;;;15.50;99.90;;;;;;5028690;28;20968;-53
2022/07/07 10:24:28;;;;;;;5.10;3.10;;;15.50;99.90;;;;;;5036185;28;20463;-53
2022/07/07 10:26:56;;;;;;;3.40;3.13;;;15.60;99.90;;;;;;5039882;28;20458;-52
2022/07/07 10:29:40;;;;;;;3.77;3.50;;;15.50;99.90;;;;;;5031151;28;20514;-53
2022/07/07 10:32:08;;;;;;;3.30;3.10;;;15.50;99.90;;;;;;5024683;28;20457;-53
2022/07/07 10:34:37;;;;;;;3.43;3.33;;;15.60;99.90;;;;;;5035905;28;20848;-52
2022/07/07 10:37:06;;;;;;;3.37;3.17;;;15.50;99.90;;;;;;5023065;28;20521;-52
2022/07/07 10:39:36;;;;;;;4.13;3.83;;;15.60;99.90;;;;;;5031811;28;20509;-52
2022/07/07 10:42:07;;;;;;;3.87;3.63;;;15.60;99.90;;;;;;5021306;28;20522;-53
2022/07/07 10:44:36;;;;;;;4.23;4.00;;;15.60;99.90;;;;;;5031927;28;20505;-51
2022/07/07 10:47:06;;;;;;;3.87;3.53;;;15.50;99.90;;;;;;5026300;28;20455;-52
2022/07/07 10:49:40;;;;;;;3.90;3.70;;;15.60;99.90;;;;;;5030284;28;20474;-52
2022/07/07 10:52:12;;;;;;;3.93;3.70;;;15.60;99.90;;;;;;5028360;28;20510;-53
2022/07/07 10:54:40;;;;;;;4.10;3.90;;;15.60;99.90;;;;;;5038531;28;20486;-52
2022/07/07 10:57:13;;;;;;;3.97;3.77;;;15.70;99.90;;;;;;5035805;28;20553;-52
2022/07/07 11:00:08;;;;;;;3.60;3.40;;;15.70;99.90;;;;;;5031051;28;20481;-53
2022/07/07 11:02:37;;;;;;;3.70;3.50;;;15.70;99.90;;;;;;5029937;28;20536;-53
2022/07/07 11:05:20;;;;;;;3.80;3.50;;;15.80;99.90;;;;;;5033858;28;20493;-52
2022/07/07 11:08:12;;;;;;;3.43;3.33;;;15.80;99.90;;;;;;5027346;28;20494;-53
2022/07/07 11:10:48;;;;;;;3.23;3.13;;;15.80;99.90;;;;;;5032403;28;20507;-52
2022/07/07 11:13:17;;;;;;;3.47;3.23;;;15.80;99.90;;;;;;5027641;28;20508;-53
2022/07/07 11:15:44;;;;;;;3.80;3.50;;;15.80;99.90;;;;;;5027002;28;20487;-53
2022/07/07 11:18:14;;;;;;;3.60;3.30;;;15.80;99.90;;;;;;5031486;28;20466;-53
2022/07/07 11:20:58;;;;;;;3.83;3.63;;;15.90;99.90;;;;;;5023876;28;20961;-53
2022/07/07 11:23:27;;;;;;;3.97;3.77;;;16.00;99.90;;;;;;5030699;28;20463;-52
2022/07/07 11:25:56;;;;;;;6.40;4.40;;;16.10;99.90;;;;;;5042018;28;20456;-52
2022/07/07 11:28:25;;;;;;;4.00;3.70;;;16.10;99.90;;;;;;5033546;28;20521;-52
2022/07/07 11:31:01;;;;;;;4.17;3.97;;;16.20;99.90;;;;;;5028878;28;20474;-53
2022/07/07 11:33:29;;;;;;;3.80;3.60;;;16.20;99.90;;;;;;5031431;28;20842;-52
2022/07/07 11:35:55;;;;;;;4.47;3.90;;;16.20;99.90;;;;;;5022258;28;20487;-53
2022/07/07 11:38:28;;;;;;;3.90;3.60;;;16.20;99.90;;;;;;5032167;28;20527;-52
2022/07/07 11:40:55;;;;;;;5.13;4.83;;;16.20;99.90;;;;;;5033718;28;20490;-52
2022/07/07 11:43:22;;;;;;;4.87;4.57;;;16.20;99.90;;;;;;5022805;28;20521;-53
2022/07/07 11:45:48;;;;;;;4.80;4.50;;;16.30;99.90;;;;;;5030986;28;21011;-53
2022/07/07 11:48:15;;;;;;;4.50;4.20;;;16.30;99.90;;;;;;5025752;28;20957;-53
2022/07/07 11:50:45;;;;;;;5.10;4.70;;;16.40;99.90;;;;;;5024290;28;20505;-53
2022/07/07 11:53:13;;;;;;;4.83;4.53;;;16.50;99.90;;;;;;5032535;28;20963;-53
2022/07/07 11:55:40;;;;;;;4.63;4.23;;;16.50;99.90;;;;;;5027484;28;20475;-54
2022/07/07 11:58:08;;;;;;;12.30;4.10;;;16.50;99.90;;;;;;5031026;28;20463;-52
2022/07/07 12:00:36;;;;;;;8.90;4.13;;;16.70;99.90;;;;;;5035162;28;20442;-53
2022/07/07 12:03:05;;;;;;;4.87;4.57;;;16.90;99.90;;;;;;5034473;28;20454;-52
2022/07/07 12:05:34;;;;;;;4.30;3.90;;;17.10;99.90;;;;;;5032629;28;20479;-52
2022/07/07 12:08:05;;;;;;;6.60;3.97;;;17.10;99.90;;;;;;5033181;28;21035;-53
2022/07/07 12:10:33;;;;;;;3.80;3.60;;;17.10;99.90;;;;;;5036493;28;20474;-52
2022/07/07 12:13:02;;;;;;;3.50;3.30;;;17.10;99.90;;;;;;5026308;28;20517;-53
2022/07/07 12:15:30;;;;;;;3.20;3.10;;;17.10;99.90;;;;;;5030329;28;21493;-53
2022/07/07 12:17:57;;;;;;;4.40;3.40;;;17.20;99.90;;;;;;5033816;28;20522;-52
2022/07/07 12:20:24;;;;;;;3.60;3.40;;;17.20;99.90;;;;;;5033998;28;20459;-53
2022/07/07 12:22:53;;;;;;;2.83;2.63;;;17.20;99.90;;;;;;5032733;28;20491;-52
2022/07/07 12:25:23;;;;;;;3.23;3.03;;;17.30;99.90;;;;;;5030544;28;20454;-52
2022/07/07 12:27:57;;;;;;;3.40;3.20;;;17.20;99.90;;;;;;5023546;28;20895;-52
2022/07/07 12:30:25;;;;;;;5.20;2.97;;;17.20;26.50;;;;;;5030572;28;20457;-53
2022/07/07 12:32:51;;;;;;;2.97;2.77;;;17.20;31.30;;;;;;5032225;28;20948;-52
2022/07/07 12:35:28;;;;;;;2.97;2.77;;;17.20;33.80;;;;;;5022719;28;21021;-52
2022/07/07 12:37:55;;;;;;;2.73;2.53;;;17.30;41.00;;;;;;5031201;28;20462;-52
2022/07/07 12:40:23;;;;;;;2.87;2.23;;;17.50;30.80;;;;;;5031257;28;20459;-53
2022/07/07 12:42:50;;;;;;;2.67;2.57;;;17.70;29.40;;;;;;5031690;28;20949;-53
2022/07/07 12:45:19;;;;;;;2.20;2.10;;;17.80;36.90;;;;;;5020151;28;20460;-53
2022/07/07 12:47:48;;;;;;;2.50;2.40;;;18.00;41.10;;;;;;5031196;28;20467;-53
2022/07/07 12:50:16;;;;;;;2.13;2.03;;;18.20;49.20;;;;;;5033019;28;20541;-53
2022/07/07 12:52:55;;;;;;;1.90;1.87;;;18.30;68.80;;;;;;5030505;28;20458;-53